sensor_id;sensor_type;location;lat;lon;timestamp;P1;durP1;ratioP1;P2;durP2;ratioP2
64609;SDS011;51019;46.090;6.350;2023-04-12T00:00:21;8.13;;;1.90;;
64609;SDS011;51019;46.090;6.350;2023-04-12T00:02:51;7.75;;;1.83;;
64609;SDS011;51019;46.090;6.350;2023-04-12T00:05:19;9.07;;;1.95;;
64609;SDS011;51019;46.090;6.350;2023-04-12T00:07:51;8.20;;;1.90;;
64609;SDS011;51019;46.090;6.350;2023-04-12T00:10:19;7.82;;;1.85;;
64609;SDS011;51019;46.090;6.350;2023-04-12T00:12:47;6.70;;;1.80;;
64609;SDS011;51019;46.090;6.350;2023-04-12T00:15:15;8.45;;;2.00;;
64609;SDS011;51019;46.090;6.350;2023-04-12T00:17:43;7.90;;;1.95;;
64609;SDS011;51019;46.090;6.350;2023-04-12T00:20:13;8.25;;;1.95;;
64609;SDS011;51019;46.090;6.350;2023-04-12T00:22:40;6.28;;;2.00;;
64609;SDS011;51019;46.090;6.350;2023-04-12T00:25:09;10.32;;;1.85;;
64609;SDS011;51019;46.090;6.350;2023-04-12T00:27:36;7.57;;;2.10;;
64609;SDS011;51019;46.090;6.350;2023-04-12T00:30:04;7.47;;;1.80;;
64609;SDS011;51019;46.090;6.350;2023-04-12T00:32:32;8.48;;;1.98;;
64609;SDS011;51019;46.090;6.350;2023-04-12T00:35:00;9.48;;;1.88;;
64609;SDS011;51019;46.090;6.350;2023-04-12T00:37:29;8.27;;;1.98;;
64609;SDS011;51019;46.090;6.350;2023-04-12T00:39:57;5.45;;;1.77;;
64609;SDS011;51019;46.090;6.350;2023-04-12T00:42:24;8.35;;;1.77;;
64609;SDS011;51019;46.090;6.350;2023-04-12T00:44:52;9.52;;;2.30;;
64609;SDS011;51019;46.090;6.350;2023-04-12T00:47:19;6.40;;;1.77;;
64609;SDS011;51019;46.090;6.350;2023-04-12T00:49:47;8.68;;;2.30;;
64609;SDS011;51019;46.090;6.350;2023-04-12T00:52:14;8.57;;;1.85;;
64609;SDS011;51019;46.090;6.350;2023-04-12T00:54:44;7.70;;;1.88;;
64609;SDS011;51019;46.090;6.350;2023-04-12T00:57:12;7.97;;;2.10;;
64609;SDS011;51019;46.090;6.350;2023-04-12T00:59:39;7.90;;;2.28;;
64609;SDS011;51019;46.090;6.350;2023-04-12T01:02:06;12.00;;;2.20;;
64609;SDS011;51019;46.090;6.350;2023-04-12T01:04:34;8.70;;;2.30;;
64609;SDS011;51019;46.090;6.350;2023-04-12T01:07:07;11.07;;;2.42;;
64609;SDS011;51019;46.090;6.350;2023-04-12T01:09:41;8.32;;;1.88;;
64609;SDS011;51019;46.090;6.350;2023-04-12T01:12:19;9.13;;;2.10;;
64609;SDS011;51019;46.090;6.350;2023-04-12T01:14:59;9.00;;;2.03;;
64609;SDS011;51019;46.090;6.350;2023-04-12T01:17:33;9.57;;;2.42;;
64609;SDS011;51019;46.090;6.350;2023-04-12T01:20:05;9.13;;;2.08;;
64609;SDS011;51019;46.090;6.350;2023-04-12T01:22:44;9.13;;;2.10;;
64609;SDS011;51019;46.090;6.350;2023-04-12T01:28:14;9.73;;;2.35;;
64609;SDS011;51019;46.090;6.350;2023-04-12T01:30:46;11.48;;;2.30;;
64609;SDS011;51019;46.090;6.350;2023-04-12T01:33:16;11.23;;;2.47;;
64609;SDS011;51019;46.090;6.350;2023-04-12T01:35:47;8.52;;;2.47;;
64609;SDS011;51019;46.090;6.350;2023-04-12T01:38:15;10.15;;;2.35;;
64609;SDS011;51019;46.090;6.350;2023-04-12T01:40:43;8.52;;;2.00;;
64609;SDS011;51019;46.090;6.350;2023-04-12T01:43:11;9.77;;;2.42;;
64609;SDS011;51019;46.090;6.350;2023-04-12T01:45:41;9.27;;;2.15;;
64609;SDS011;51019;46.090;6.350;2023-04-12T01:48:09;8.82;;;2.20;;
64609;SDS011;51019;46.090;6.350;2023-04-12T01:50:39;10.40;;;2.05;;
64609;SDS011;51019;46.090;6.350;2023-04-12T01:53:11;10.05;;;2.13;;
64609;SDS011;51019;46.090;6.350;2023-04-12T01:55:44;8.13;;;2.17;;
64609;SDS011;51019;46.090;6.350;2023-04-12T01:58:13;6.68;;;1.83;;
64609;SDS011;51019;46.090;6.350;2023-04-12T02:00:44;7.90;;;1.70;;
64609;SDS011;51019;46.090;6.350;2023-04-12T02:03:13;6.18;;;1.67;;
64609;SDS011;51019;46.090;6.350;2023-04-12T02:05:42;8.30;;;1.90;;
64609;SDS011;51019;46.090;6.350;2023-04-12T02:08:10;6.22;;;1.48;;
64609;SDS011;51019;46.090;6.350;2023-04-12T02:10:37;8.70;;;1.80;;
64609;SDS011;51019;46.090;6.350;2023-04-12T02:13:06;4.78;;;1.60;;
64609;SDS011;51019;46.090;6.350;2023-04-12T02:15:33;8.80;;;1.88;;
64609;SDS011;51019;46.090;6.350;2023-04-12T02:18:03;4.65;;;1.50;;
64609;SDS011;51019;46.090;6.350;2023-04-12T02:20:31;8.77;;;1.60;;
64609;SDS011;51019;46.090;6.350;2023-04-12T02:22:59;8.23;;;1.70;;
64609;SDS011;51019;46.090;6.350;2023-04-12T02:25:26;5.05;;;1.60;;
64609;SDS011;51019;46.090;6.350;2023-04-12T02:27:55;6.25;;;1.50;;
64609;SDS011;51019;46.090;6.350;2023-04-12T02:30:22;5.57;;;1.65;;
64609;SDS011;51019;46.090;6.350;2023-04-12T02:32:49;6.05;;;1.67;;
64609;SDS011;51019;46.090;6.350;2023-04-12T02:35:18;6.72;;;1.60;;
64609;SDS011;51019;46.090;6.350;2023-04-12T02:37:46;6.10;;;1.52;;
64609;SDS011;51019;46.090;6.350;2023-04-12T02:40:14;3.80;;;1.40;;
64609;SDS011;51019;46.090;6.350;2023-04-12T02:42:41;4.97;;;1.65;;
64609;SDS011;51019;46.090;6.350;2023-04-12T02:45:09;6.53;;;1.60;;
64609;SDS011;51019;46.090;6.350;2023-04-12T02:47:37;5.72;;;1.60;;
64609;SDS011;51019;46.090;6.350;2023-04-12T02:50:06;7.05;;;1.90;;
64609;SDS011;51019;46.090;6.350;2023-04-12T02:52:36;5.80;;;1.50;;
64609;SDS011;51019;46.090;6.350;2023-04-12T02:55:04;7.18;;;1.50;;
64609;SDS011;51019;46.090;6.350;2023-04-12T02:57:32;3.75;;;1.20;;
64609;SDS011;51019;46.090;6.350;2023-04-12T02:59:59;5.10;;;1.40;;
64609;SDS011;51019;46.090;6.350;2023-04-12T03:02:30;4.78;;;1.40;;
64609;SDS011;51019;46.090;6.350;2023-04-12T03:04:57;9.32;;;1.88;;
64609;SDS011;51019;46.090;6.350;2023-04-12T03:07:27;9.43;;;1.95;;
64609;SDS011;51019;46.090;6.350;2023-04-12T03:09:57;8.20;;;1.70;;
64609;SDS011;51019;46.090;6.350;2023-04-12T03:12:25;5.90;;;1.60;;
64609;SDS011;51019;46.090;6.350;2023-04-12T03:14:52;7.95;;;2.00;;
64609;SDS011;51019;46.090;6.350;2023-04-12T03:17:20;6.72;;;1.45;;
64609;SDS011;51019;46.090;6.350;2023-04-12T03:19:48;6.57;;;1.52;;
64609;SDS011;51019;46.090;6.350;2023-04-12T03:22:15;4.30;;;1.30;;
64609;SDS011;51019;46.090;6.350;2023-04-12T03:24:43;5.03;;;1.58;;
64609;SDS011;51019;46.090;6.350;2023-04-12T03:27:13;5.63;;;1.40;;
64609;SDS011;51019;46.090;6.350;2023-04-12T03:29:40;5.93;;;1.55;;
64609;SDS011;51019;46.090;6.350;2023-04-12T03:32:08;5.85;;;1.42;;
64609;SDS011;51019;46.090;6.350;2023-04-12T03:34:35;3.65;;;1.23;;
64609;SDS011;51019;46.090;6.350;2023-04-12T03:37:02;6.63;;;1.48;;
64609;SDS011;51019;46.090;6.350;2023-04-12T03:39:30;4.55;;;1.33;;
64609;SDS011;51019;46.090;6.350;2023-04-12T03:41:58;4.68;;;1.40;;
64609;SDS011;51019;46.090;6.350;2023-04-12T03:44:27;6.43;;;1.60;;
64609;SDS011;51019;46.090;6.350;2023-04-12T03:46:54;7.32;;;1.83;;
64609;SDS011;51019;46.090;6.350;2023-04-12T03:49:22;9.73;;;2.00;;
64609;SDS011;51019;46.090;6.350;2023-04-12T03:51:50;6.57;;;2.08;;
64609;SDS011;51019;46.090;6.350;2023-04-12T03:54:18;6.40;;;1.73;;
64609;SDS011;51019;46.090;6.350;2023-04-12T03:56:46;5.38;;;1.60;;
64609;SDS011;51019;46.090;6.350;2023-04-12T03:59:13;5.45;;;1.60;;
64609;SDS011;51019;46.090;6.350;2023-04-12T04:01:42;5.93;;;1.58;;
64609;SDS011;51019;46.090;6.350;2023-04-12T04:04:10;5.65;;;1.58;;
64609;SDS011;51019;46.090;6.350;2023-04-12T04:06:38;6.00;;;1.63;;
64609;SDS011;51019;46.090;6.350;2023-04-12T04:09:05;6.32;;;1.48;;
64609;SDS011;51019;46.090;6.350;2023-04-12T04:11:33;6.68;;;1.65;;
64609;SDS011;51019;46.090;6.350;2023-04-12T04:14:01;4.95;;;1.40;;
64609;SDS011;51019;46.090;6.350;2023-04-12T04:16:29;6.38;;;1.83;;
64609;SDS011;51019;46.090;6.350;2023-04-12T04:18:58;8.40;;;1.55;;
64609;SDS011;51019;46.090;6.350;2023-04-12T04:21:25;5.70;;;1.52;;
64609;SDS011;51019;46.090;6.350;2023-04-12T04:23:54;4.28;;;1.50;;
64609;SDS011;51019;46.090;6.350;2023-04-12T04:26:22;5.63;;;1.33;;
64609;SDS011;51019;46.090;6.350;2023-04-12T04:28:57;6.75;;;1.60;;
64609;SDS011;51019;46.090;6.350;2023-04-12T04:31:27;5.60;;;1.60;;
64609;SDS011;51019;46.090;6.350;2023-04-12T04:34:00;3.63;;;1.05;;
64609;SDS011;51019;46.090;6.350;2023-04-12T04:36:31;6.40;;;1.60;;
64609;SDS011;51019;46.090;6.350;2023-04-12T04:38:59;4.35;;;1.20;;
64609;SDS011;51019;46.090;6.350;2023-04-12T04:41:28;4.38;;;1.23;;
64609;SDS011;51019;46.090;6.350;2023-04-12T04:43:58;2.67;;;1.23;;
64609;SDS011;51019;46.090;6.350;2023-04-12T04:46:25;5.13;;;1.23;;
64609;SDS011;51019;46.090;6.350;2023-04-12T04:48:54;4.47;;;1.40;;
64609;SDS011;51019;46.090;6.350;2023-04-12T04:51:24;4.60;;;1.55;;
64609;SDS011;51019;46.090;6.350;2023-04-12T04:53:51;3.35;;;1.17;;
64609;SDS011;51019;46.090;6.350;2023-04-12T04:56:19;3.70;;;1.10;;
64609;SDS011;51019;46.090;6.350;2023-04-12T04:58:47;4.38;;;1.30;;
64609;SDS011;51019;46.090;6.350;2023-04-12T05:01:14;7.60;;;1.60;;
64609;SDS011;51019;46.090;6.350;2023-04-12T05:03:42;7.22;;;1.88;;
64609;SDS011;51019;46.090;6.350;2023-04-12T05:06:10;6.95;;;1.70;;
64609;SDS011;51019;46.090;6.350;2023-04-12T05:08:39;9.02;;;2.10;;
64609;SDS011;51019;46.090;6.350;2023-04-12T05:11:06;6.22;;;1.85;;
64609;SDS011;51019;46.090;6.350;2023-04-12T05:13:34;8.48;;;1.95;;
64609;SDS011;51019;46.090;6.350;2023-04-12T05:16:04;9.48;;;2.13;;
64609;SDS011;51019;46.090;6.350;2023-04-12T05:18:32;8.52;;;1.70;;
64609;SDS011;51019;46.090;6.350;2023-04-12T05:21:00;10.02;;;1.88;;
64609;SDS011;51019;46.090;6.350;2023-04-12T05:23:31;7.25;;;2.15;;
64609;SDS011;51019;46.090;6.350;2023-04-12T05:26:03;6.17;;;1.83;;
64609;SDS011;51019;46.090;6.350;2023-04-12T05:28:32;8.23;;;1.98;;
64609;SDS011;51019;46.090;6.350;2023-04-12T05:31:00;8.95;;;2.17;;
64609;SDS011;51019;46.090;6.350;2023-04-12T05:33:28;8.38;;;2.10;;
64609;SDS011;51019;46.090;6.350;2023-04-12T05:35:55;9.93;;;2.17;;
64609;SDS011;51019;46.090;6.350;2023-04-12T05:38:23;9.27;;;2.10;;
64609;SDS011;51019;46.090;6.350;2023-04-12T05:40:51;10.25;;;2.38;;
64609;SDS011;51019;46.090;6.350;2023-04-12T05:43:20;11.30;;;1.92;;
64609;SDS011;51019;46.090;6.350;2023-04-12T05:45:48;10.27;;;2.33;;
64609;SDS011;51019;46.090;6.350;2023-04-12T05:48:16;7.85;;;2.08;;
64609;SDS011;51019;46.090;6.350;2023-04-12T05:50:49;11.00;;;2.22;;
64609;SDS011;51019;46.090;6.350;2023-04-12T05:53:16;9.95;;;2.33;;
64609;SDS011;51019;46.090;6.350;2023-04-12T05:55:44;13.57;;;3.70;;
64609;SDS011;51019;46.090;6.350;2023-04-12T05:58:12;10.85;;;2.22;;
64609;SDS011;51019;46.090;6.350;2023-04-12T06:00:42;8.68;;;2.17;;
64609;SDS011;51019;46.090;6.350;2023-04-12T06:03:09;8.55;;;2.00;;
64609;SDS011;51019;46.090;6.350;2023-04-12T06:05:37;8.13;;;1.98;;
64609;SDS011;51019;46.090;6.350;2023-04-12T06:08:04;8.82;;;2.00;;
64609;SDS011;51019;46.090;6.350;2023-04-12T06:10:32;10.25;;;2.20;;
64609;SDS011;51019;46.090;6.350;2023-04-12T06:13:00;9.90;;;2.67;;
64609;SDS011;51019;46.090;6.350;2023-04-12T06:15:27;9.27;;;2.50;;
64609;SDS011;51019;46.090;6.350;2023-04-12T06:17:58;14.32;;;3.03;;
64609;SDS011;51019;46.090;6.350;2023-04-12T06:20:25;12.98;;;3.00;;
64609;SDS011;51019;46.090;6.350;2023-04-12T06:22:52;11.05;;;2.70;;
64609;SDS011;51019;46.090;6.350;2023-04-12T06:25:20;15.02;;;2.92;;
64609;SDS011;51019;46.090;6.350;2023-04-12T06:27:48;10.73;;;2.80;;
64609;SDS011;51019;46.090;6.350;2023-04-12T06:30:15;9.52;;;2.80;;
64609;SDS011;51019;46.090;6.350;2023-04-12T06:32:42;10.38;;;2.70;;
64609;SDS011;51019;46.090;6.350;2023-04-12T06:35:11;10.18;;;2.58;;
64609;SDS011;51019;46.090;6.350;2023-04-12T06:37:39;9.13;;;2.45;;
64609;SDS011;51019;46.090;6.350;2023-04-12T06:40:07;8.80;;;2.28;;
64609;SDS011;51019;46.090;6.350;2023-04-12T06:42:36;10.23;;;2.85;;
64609;SDS011;51019;46.090;6.350;2023-04-12T06:45:04;9.35;;;2.22;;
64609;SDS011;51019;46.090;6.350;2023-04-12T06:47:32;9.50;;;2.20;;
64609;SDS011;51019;46.090;6.350;2023-04-12T06:50:00;9.43;;;2.30;;
64609;SDS011;51019;46.090;6.350;2023-04-12T06:52:29;10.77;;;2.40;;
64609;SDS011;51019;46.090;6.350;2023-04-12T06:54:58;10.60;;;2.30;;
64609;SDS011;51019;46.090;6.350;2023-04-12T06:57:25;10.32;;;2.55;;
64609;SDS011;51019;46.090;6.350;2023-04-12T06:59:52;14.18;;;3.35;;
64609;SDS011;51019;46.090;6.350;2023-04-12T07:02:20;8.25;;;2.28;;
64609;SDS011;51019;46.090;6.350;2023-04-12T07:04:50;12.35;;;2.58;;
64609;SDS011;51019;46.090;6.350;2023-04-12T07:07:18;9.85;;;2.30;;
64609;SDS011;51019;46.090;6.350;2023-04-12T07:09:47;10.40;;;2.40;;
64609;SDS011;51019;46.090;6.350;2023-04-12T07:12:16;9.85;;;2.50;;
64609;SDS011;51019;46.090;6.350;2023-04-12T07:14:44;8.98;;;2.30;;
64609;SDS011;51019;46.090;6.350;2023-04-12T07:20:10;10.88;;;2.20;;
64609;SDS011;51019;46.090;6.350;2023-04-12T07:22:39;11.15;;;2.47;;
64609;SDS011;51019;46.090;6.350;2023-04-12T07:25:08;9.63;;;2.17;;
64609;SDS011;51019;46.090;6.350;2023-04-12T07:27:35;11.15;;;2.75;;
64609;SDS011;51019;46.090;6.350;2023-04-12T07:30:04;9.55;;;2.30;;
64609;SDS011;51019;46.090;6.350;2023-04-12T07:32:32;10.13;;;2.00;;
64609;SDS011;51019;46.090;6.350;2023-04-12T07:34:59;9.20;;;2.28;;
64609;SDS011;51019;46.090;6.350;2023-04-12T07:37:27;8.68;;;2.03;;
64609;SDS011;51019;46.090;6.350;2023-04-12T07:39:54;9.02;;;1.85;;
64609;SDS011;51019;46.090;6.350;2023-04-12T07:42:23;11.63;;;2.17;;
64609;SDS011;51019;46.090;6.350;2023-04-12T07:44:50;7.22;;;1.70;;
64609;SDS011;51019;46.090;6.350;2023-04-12T07:47:18;10.30;;;1.80;;
64609;SDS011;51019;46.090;6.350;2023-04-12T07:49:45;8.30;;;1.77;;
64609;SDS011;51019;46.090;6.350;2023-04-12T07:52:12;10.23;;;2.45;;
64609;SDS011;51019;46.090;6.350;2023-04-12T07:54:40;7.72;;;2.10;;
64609;SDS011;51019;46.090;6.350;2023-04-12T07:57:08;8.00;;;2.00;;
64609;SDS011;51019;46.090;6.350;2023-04-12T07:59:37;11.30;;;2.25;;
64609;SDS011;51019;46.090;6.350;2023-04-12T08:02:06;7.90;;;2.08;;
64609;SDS011;51019;46.090;6.350;2023-04-12T08:04:34;7.25;;;2.03;;
64609;SDS011;51019;46.090;6.350;2023-04-12T08:07:01;6.25;;;1.60;;
64609;SDS011;51019;46.090;6.350;2023-04-12T08:09:28;9.20;;;1.70;;
64609;SDS011;51019;46.090;6.350;2023-04-12T08:11:56;9.30;;;2.10;;
64609;SDS011;51019;46.090;6.350;2023-04-12T08:14:23;10.32;;;1.80;;
64609;SDS011;51019;46.090;6.350;2023-04-12T08:16:53;5.68;;;1.60;;
64609;SDS011;51019;46.090;6.350;2023-04-12T08:19:20;8.13;;;1.83;;
64609;SDS011;51019;46.090;6.350;2023-04-12T08:21:47;7.55;;;2.53;;
64609;SDS011;51019;46.090;6.350;2023-04-12T08:24:14;9.05;;;2.30;;
64609;SDS011;51019;46.090;6.350;2023-04-12T08:26:41;7.88;;;1.70;;
64609;SDS011;51019;46.090;6.350;2023-04-12T08:29:09;7.97;;;1.85;;
64609;SDS011;51019;46.090;6.350;2023-04-12T08:31:37;8.60;;;2.03;;
64609;SDS011;51019;46.090;6.350;2023-04-12T08:34:07;6.50;;;1.70;;
64609;SDS011;51019;46.090;6.350;2023-04-12T08:36:34;7.25;;;1.50;;
64609;SDS011;51019;46.090;6.350;2023-04-12T08:39:01;7.03;;;1.50;;
64609;SDS011;51019;46.090;6.350;2023-04-12T08:41:29;6.13;;;1.50;;
64609;SDS011;51019;46.090;6.350;2023-04-12T08:43:56;7.70;;;1.55;;
64609;SDS011;51019;46.090;6.350;2023-04-12T08:46:25;7.00;;;1.70;;
64609;SDS011;51019;46.090;6.350;2023-04-12T08:48:52;6.07;;;1.77;;
64609;SDS011;51019;46.090;6.350;2023-04-12T08:51:23;6.72;;;1.75;;
64609;SDS011;51019;46.090;6.350;2023-04-12T08:53:51;6.82;;;1.85;;
64609;SDS011;51019;46.090;6.350;2023-04-12T08:56:18;9.88;;;1.85;;
64609;SDS011;51019;46.090;6.350;2023-04-12T08:58:47;6.18;;;1.45;;
64609;SDS011;51019;46.090;6.350;2023-04-12T09:01:15;7.70;;;1.80;;
64609;SDS011;51019;46.090;6.350;2023-04-12T09:03:43;6.30;;;1.70;;
64609;SDS011;51019;46.090;6.350;2023-04-12T09:06:11;6.03;;;1.77;;
64609;SDS011;51019;46.090;6.350;2023-04-12T09:08:51;9.93;;;1.90;;
64609;SDS011;51019;46.090;6.350;2023-04-12T09:11:23;10.02;;;1.90;;
64609;SDS011;51019;46.090;6.350;2023-04-12T09:13:52;8.98;;;1.95;;
64609;SDS011;51019;46.090;6.350;2023-04-12T09:16:33;7.25;;;1.77;;
64609;SDS011;51019;46.090;6.350;2023-04-12T09:19:01;11.43;;;2.20;;
64609;SDS011;51019;46.090;6.350;2023-04-12T09:21:28;8.55;;;1.75;;
64609;SDS011;51019;46.090;6.350;2023-04-12T09:24:05;7.68;;;1.73;;
64609;SDS011;51019;46.090;6.350;2023-04-12T09:26:37;7.82;;;1.77;;
64609;SDS011;51019;46.090;6.350;2023-04-12T09:29:04;6.50;;;1.95;;
64609;SDS011;51019;46.090;6.350;2023-04-12T09:31:53;11.25;;;2.10;;
64609;SDS011;51019;46.090;6.350;2023-04-12T09:34:21;8.40;;;1.88;;
64609;SDS011;51019;46.090;6.350;2023-04-12T09:36:48;7.88;;;1.80;;
64609;SDS011;51019;46.090;6.350;2023-04-12T09:39:18;6.85;;;2.13;;
64609;SDS011;51019;46.090;6.350;2023-04-12T09:41:45;7.68;;;1.85;;
64609;SDS011;51019;46.090;6.350;2023-04-12T09:44:26;5.97;;;1.65;;
64609;SDS011;51019;46.090;6.350;2023-04-12T09:46:55;6.32;;;1.60;;
64609;SDS011;51019;46.090;6.350;2023-04-12T09:49:34;7.03;;;1.70;;
64609;SDS011;51019;46.090;6.350;2023-04-12T09:52:03;8.60;;;1.92;;
64609;SDS011;51019;46.090;6.350;2023-04-12T09:54:36;8.48;;;2.00;;
64609;SDS011;51019;46.090;6.350;2023-04-12T09:57:07;7.53;;;1.75;;
64609;SDS011;51019;46.090;6.350;2023-04-12T09:59:35;9.32;;;1.92;;
64609;SDS011;51019;46.090;6.350;2023-04-12T10:02:06;6.82;;;1.60;;
64609;SDS011;51019;46.090;6.350;2023-04-12T10:04:38;7.57;;;1.60;;
64609;SDS011;51019;46.090;6.350;2023-04-12T10:07:06;9.68;;;1.90;;
64609;SDS011;51019;46.090;6.350;2023-04-12T10:09:36;7.88;;;1.80;;
64609;SDS011;51019;46.090;6.350;2023-04-12T10:12:06;9.30;;;2.08;;
64609;SDS011;51019;46.090;6.350;2023-04-12T10:14:36;7.53;;;1.98;;
64609;SDS011;51019;46.090;6.350;2023-04-12T10:17:04;5.82;;;1.80;;
64609;SDS011;51019;46.090;6.350;2023-04-12T10:19:33;8.23;;;1.77;;
64609;SDS011;51019;46.090;6.350;2023-04-12T10:22:01;7.43;;;1.77;;
64609;SDS011;51019;46.090;6.350;2023-04-12T10:24:28;8.02;;;1.90;;
64609;SDS011;51019;46.090;6.350;2023-04-12T10:26:57;6.22;;;1.65;;
64609;SDS011;51019;46.090;6.350;2023-04-12T10:29:28;7.53;;;1.90;;
64609;SDS011;51019;46.090;6.350;2023-04-12T10:34:49;8.70;;;2.08;;
64609;SDS011;51019;46.090;6.350;2023-04-12T10:37:17;6.60;;;1.65;;
64609;SDS011;51019;46.090;6.350;2023-04-12T10:39:44;8.05;;;2.00;;
64609;SDS011;51019;46.090;6.350;2023-04-12T10:42:20;8.43;;;2.00;;
64609;SDS011;51019;46.090;6.350;2023-04-12T10:44:49;6.43;;;1.75;;
64609;SDS011;51019;46.090;6.350;2023-04-12T10:50:23;9.18;;;2.08;;
64609;SDS011;51019;46.090;6.350;2023-04-12T10:59:14;4.53;;;1.50;;
64609;SDS011;51019;46.090;6.350;2023-04-12T11:02:07;9.38;;;2.10;;
64609;SDS011;51019;46.090;6.350;2023-04-12T11:07:05;7.72;;;1.83;;
64609;SDS011;51019;46.090;6.350;2023-04-12T11:09:38;5.57;;;1.50;;
64609;SDS011;51019;46.090;6.350;2023-04-12T11:12:14;8.40;;;1.77;;
64609;SDS011;51019;46.090;6.350;2023-04-12T11:14:43;6.88;;;1.60;;
64609;SDS011;51019;46.090;6.350;2023-04-12T11:17:21;5.85;;;1.70;;
64609;SDS011;51019;46.090;6.350;2023-04-12T11:19:54;10.07;;;2.22;;
64609;SDS011;51019;46.090;6.350;2023-04-12T11:22:24;6.13;;;1.60;;
64609;SDS011;51019;46.090;6.350;2023-04-12T11:24:53;10.65;;;1.83;;
64609;SDS011;51019;46.090;6.350;2023-04-12T11:27:25;5.50;;;1.65;;
64609;SDS011;51019;46.090;6.350;2023-04-12T11:29:54;5.60;;;1.70;;
64609;SDS011;51019;46.090;6.350;2023-04-12T11:32:23;4.85;;;1.50;;
64609;SDS011;51019;46.090;6.350;2023-04-12T11:34:52;6.18;;;1.50;;
64609;SDS011;51019;46.090;6.350;2023-04-12T11:37:21;6.55;;;1.63;;
64609;SDS011;51019;46.090;6.350;2023-04-12T11:39:49;7.40;;;1.70;;
64609;SDS011;51019;46.090;6.350;2023-04-12T11:42:19;5.07;;;1.33;;
64609;SDS011;51019;46.090;6.350;2023-04-12T11:44:50;7.18;;;1.73;;
64609;SDS011;51019;46.090;6.350;2023-04-12T11:47:19;7.07;;;1.52;;
64609;SDS011;51019;46.090;6.350;2023-04-12T11:49:48;7.38;;;1.70;;
64609;SDS011;51019;46.090;6.350;2023-04-12T11:52:17;9.32;;;2.10;;
64609;SDS011;51019;46.090;6.350;2023-04-12T11:54:46;7.80;;;1.90;;
64609;SDS011;51019;46.090;6.350;2023-04-12T11:57:15;8.25;;;1.90;;
64609;SDS011;51019;46.090;6.350;2023-04-12T11:59:44;7.85;;;1.63;;
64609;SDS011;51019;46.090;6.350;2023-04-12T12:02:14;6.65;;;1.40;;
64609;SDS011;51019;46.090;6.350;2023-04-12T12:04:43;6.30;;;1.55;;
64609;SDS011;51019;46.090;6.350;2023-04-12T12:07:12;5.57;;;1.60;;
64609;SDS011;51019;46.090;6.350;2023-04-12T12:09:41;6.18;;;1.50;;
64609;SDS011;51019;46.090;6.350;2023-04-12T12:12:10;4.82;;;1.40;;
64609;SDS011;51019;46.090;6.350;2023-04-12T12:14:38;4.70;;;1.40;;
64609;SDS011;51019;46.090;6.350;2023-04-12T12:17:10;9.95;;;2.10;;
64609;SDS011;51019;46.090;6.350;2023-04-12T12:19:41;5.45;;;1.23;;
64609;SDS011;51019;46.090;6.350;2023-04-12T12:22:12;6.95;;;1.40;;
64609;SDS011;51019;46.090;6.350;2023-04-12T12:24:44;8.30;;;1.48;;
64609;SDS011;51019;46.090;6.350;2023-04-12T12:27:16;6.65;;;1.50;;
64609;SDS011;51019;46.090;6.350;2023-04-12T12:29:47;6.03;;;1.50;;
64609;SDS011;51019;46.090;6.350;2023-04-12T12:32:17;8.93;;;1.67;;
64609;SDS011;51019;46.090;6.350;2023-04-12T12:37:36;6.38;;;1.60;;
64609;SDS011;51019;46.090;6.350;2023-04-12T12:40:04;8.63;;;1.70;;
64609;SDS011;51019;46.090;6.350;2023-04-12T12:42:35;5.57;;;1.60;;
64609;SDS011;51019;46.090;6.350;2023-04-12T12:45:03;6.47;;;1.75;;
64609;SDS011;51019;46.090;6.350;2023-04-12T12:47:32;7.30;;;1.83;;
64609;SDS011;51019;46.090;6.350;2023-04-12T12:49:59;7.60;;;1.90;;
64609;SDS011;51019;46.090;6.350;2023-04-12T12:52:29;6.90;;;1.50;;
64609;SDS011;51019;46.090;6.350;2023-04-12T12:54:56;9.15;;;1.90;;
64609;SDS011;51019;46.090;6.350;2023-04-12T12:57:23;8.32;;;1.70;;
64609;SDS011;51019;46.090;6.350;2023-04-12T12:59:51;7.60;;;2.10;;
64609;SDS011;51019;46.090;6.350;2023-04-12T13:02:18;9.35;;;2.08;;
64609;SDS011;51019;46.090;6.350;2023-04-12T13:04:45;7.35;;;2.30;;
64609;SDS011;51019;46.090;6.350;2023-04-12T13:07:13;6.93;;;1.65;;
64609;SDS011;51019;46.090;6.350;2023-04-12T13:09:42;9.50;;;1.77;;
64609;SDS011;51019;46.090;6.350;2023-04-12T13:12:12;9.07;;;1.90;;
64609;SDS011;51019;46.090;6.350;2023-04-12T13:14:40;6.97;;;1.85;;
64609;SDS011;51019;46.090;6.350;2023-04-12T13:17:08;4.95;;;1.45;;
64609;SDS011;51019;46.090;6.350;2023-04-12T13:19:35;8.90;;;1.90;;
64609;SDS011;51019;46.090;6.350;2023-04-12T13:22:03;7.18;;;1.70;;
64609;SDS011;51019;46.090;6.350;2023-04-12T13:24:31;8.52;;;2.17;;
64609;SDS011;51019;46.090;6.350;2023-04-12T13:27:01;6.03;;;1.70;;
64609;SDS011;51019;46.090;6.350;2023-04-12T13:29:29;5.40;;;1.50;;
64609;SDS011;51019;46.090;6.350;2023-04-12T13:31:56;5.90;;;1.52;;
64609;SDS011;51019;46.090;6.350;2023-04-12T13:34:24;7.22;;;1.77;;
64609;SDS011;51019;46.090;6.350;2023-04-12T13:36:51;7.47;;;1.75;;
64609;SDS011;51019;46.090;6.350;2023-04-12T13:39:18;5.45;;;1.67;;
64609;SDS011;51019;46.090;6.350;2023-04-12T13:41:47;7.20;;;1.73;;
64609;SDS011;51019;46.090;6.350;2023-04-12T13:44:16;6.90;;;1.83;;
64609;SDS011;51019;46.090;6.350;2023-04-12T13:46:44;8.02;;;1.85;;
64609;SDS011;51019;46.090;6.350;2023-04-12T13:49:12;7.78;;;1.70;;
64609;SDS011;51019;46.090;6.350;2023-04-12T13:51:39;6.20;;;1.88;;
64609;SDS011;51019;46.090;6.350;2023-04-12T13:54:06;5.35;;;1.80;;
64609;SDS011;51019;46.090;6.350;2023-04-12T13:56:34;9.52;;;2.30;;
64609;SDS011;51019;46.090;6.350;2023-04-12T13:59:01;7.70;;;2.13;;
64609;SDS011;51019;46.090;6.350;2023-04-12T14:01:31;7.22;;;1.95;;
64609;SDS011;51019;46.090;6.350;2023-04-12T14:03:58;7.30;;;2.00;;
64609;SDS011;51019;46.090;6.350;2023-04-12T14:06:26;10.13;;;2.30;;
64609;SDS011;51019;46.090;6.350;2023-04-12T14:08:54;8.65;;;2.40;;
64609;SDS011;51019;46.090;6.350;2023-04-12T14:11:21;8.90;;;2.17;;
64609;SDS011;51019;46.090;6.350;2023-04-12T14:13:49;8.27;;;2.10;;
64609;SDS011;51019;46.090;6.350;2023-04-12T14:16:17;7.63;;;2.17;;
64609;SDS011;51019;46.090;6.350;2023-04-12T14:18:46;7.15;;;1.92;;
64609;SDS011;51019;46.090;6.350;2023-04-12T14:21:13;6.40;;;1.90;;
64609;SDS011;51019;46.090;6.350;2023-04-12T14:23:41;12.68;;;2.20;;
64609;SDS011;51019;46.090;6.350;2023-04-12T14:26:12;11.10;;;2.70;;
64609;SDS011;51019;46.090;6.350;2023-04-12T14:28:41;11.65;;;2.40;;
64609;SDS011;51019;46.090;6.350;2023-04-12T14:31:08;10.68;;;2.15;;
64609;SDS011;51019;46.090;6.350;2023-04-12T14:33:35;9.32;;;2.60;;
64609;SDS011;51019;46.090;6.350;2023-04-12T14:36:05;8.73;;;2.20;;
64609;SDS011;51019;46.090;6.350;2023-04-12T14:38:33;5.35;;;1.73;;
64609;SDS011;51019;46.090;6.350;2023-04-12T14:41:00;7.95;;;2.25;;
64609;SDS011;51019;46.090;6.350;2023-04-12T14:43:32;6.45;;;1.80;;
64609;SDS011;51019;46.090;6.350;2023-04-12T14:46:00;9.25;;;2.10;;
64609;SDS011;51019;46.090;6.350;2023-04-12T14:48:27;11.40;;;2.85;;
64609;SDS011;51019;46.090;6.350;2023-04-12T14:50:54;10.80;;;3.25;;
64609;SDS011;51019;46.090;6.350;2023-04-12T14:53:24;14.32;;;5.05;;
64609;SDS011;51019;46.090;6.350;2023-04-12T14:55:52;6.13;;;1.55;;
64609;SDS011;51019;46.090;6.350;2023-04-12T14:58:19;6.05;;;1.90;;
64609;SDS011;51019;46.090;6.350;2023-04-12T15:00:46;6.32;;;1.77;;
64609;SDS011;51019;46.090;6.350;2023-04-12T15:03:13;5.65;;;1.65;;
64609;SDS011;51019;46.090;6.350;2023-04-12T15:05:40;4.75;;;1.52;;
64609;SDS011;51019;46.090;6.350;2023-04-12T15:08:08;6.35;;;1.80;;
64609;SDS011;51019;46.090;6.350;2023-04-12T15:10:37;5.53;;;1.67;;
64609;SDS011;51019;46.090;6.350;2023-04-12T15:13:04;4.53;;;1.45;;
64609;SDS011;51019;46.090;6.350;2023-04-12T15:15:32;8.77;;;1.90;;
64609;SDS011;51019;46.090;6.350;2023-04-12T15:17:59;8.35;;;2.10;;